createdAt,value
2018-11-13T00:01:28.856Z,4.01
2018-11-13T00:03:58.360Z,4.07
2018-11-13T00:06:31.681Z,4.11
2018-11-13T00:09:02.782Z,4.11
2018-11-13T00:11:32.676Z,4.16
2018-11-13T00:14:02.115Z,4.20
2018-11-13T00:16:31.801Z,4.24
2018-11-13T00:19:01.431Z,4.31
2018-11-13T00:21:31.251Z,4.28
2018-11-13T00:24:01.066Z,4.35
2018-11-13T00:26:30.848Z,4.10
2018-11-13T00:29:00.982Z,3.95
2018-11-13T00:31:30.481Z,4.03
2018-11-13T00:33:59.997Z,4.01
2018-11-13T00:36:29.899Z,3.99
2018-11-13T00:38:59.895Z,4.14
2018-11-13T00:41:29.539Z,4.25
2018-11-13T00:43:59.182Z,4.24
2018-11-13T00:46:28.956Z,4.14
2018-11-13T00:48:58.756Z,4.25
2018-11-13T00:51:28.250Z,4.18
2018-11-13T00:53:57.736Z,3.80
2018-11-13T00:56:27.827Z,3.34
2018-11-13T00:58:57.617Z,3.58
2018-11-13T01:01:27.339Z,3.49
2018-11-13T01:03:57.130Z,3.38
2018-11-13T01:06:26.890Z,3.32
2018-11-13T01:08:56.898Z,3.28
2018-11-13T01:11:26.527Z,3.10
2018-11-13T01:13:55.933Z,2.83
2018-11-13T01:16:25.577Z,2.94
2018-11-13T01:18:55.137Z,3.13
2018-11-13T01:21:24.817Z,3.26
2018-11-13T01:23:54.711Z,3.31
2018-11-13T01:26:24.519Z,3.37
2018-11-13T01:28:54.359Z,3.49
2018-11-13T01:31:23.853Z,3.46
2018-11-13T01:33:53.778Z,3.39
2018-11-13T01:36:23.554Z,3.37
2018-11-13T01:38:53.226Z,3.43
2018-11-13T01:41:22.782Z,3.57
2018-11-13T01:43:52.382Z,3.63
2018-11-13T01:46:22.405Z,3.49
2018-11-13T01:48:52.126Z,3.52
2018-11-13T01:51:21.634Z,3.43
2018-11-13T01:53:51.394Z,3.36
2018-11-13T01:56:21.049Z,3.25
2018-11-13T01:58:51.123Z,2.80
2018-11-13T02:01:20.669Z,3.05
2018-11-13T02:03:50.494Z,3.18
2018-11-13T02:06:20.264Z,3.25
2018-11-13T02:08:49.792Z,3.24
2018-11-13T02:11:19.630Z,3.18
2018-11-13T02:13:49.456Z,2.64
2018-11-13T02:16:19.053Z,2.45
2018-11-13T02:18:48.551Z,2.50
2018-11-13T02:21:18.669Z,2.82
2018-11-13T02:23:48.901Z,2.83
2018-11-13T02:26:18.686Z,2.88
2018-11-13T02:28:48.272Z,2.88
2018-11-13T02:31:17.712Z,2.90
2018-11-13T02:33:47.512Z,2.90
2018-11-13T02:36:18.686Z,2.93
2018-11-13T02:38:48.531Z,2.97
2018-11-13T02:41:18.310Z,2.95
2018-11-13T02:43:47.906Z,2.96
2018-11-13T02:46:17.608Z,3.01
2018-11-13T02:48:47.239Z,2.97
2018-11-13T02:51:16.756Z,3.02
2018-11-13T02:53:46.562Z,2.97
2018-11-13T02:56:15.913Z,2.89
2018-11-13T02:58:45.769Z,2.88
2018-11-13T03:01:15.133Z,2.89
2018-11-13T03:03:45.061Z,2.90
2018-11-13T03:06:14.591Z,2.84
2018-11-13T03:08:44.073Z,2.81
2018-11-13T03:11:14.149Z,2.83
2018-11-13T03:13:43.792Z,2.86
2018-11-13T03:16:13.439Z,2.89
2018-11-13T03:18:43.270Z,2.90
2018-11-13T03:21:12.857Z,2.87
2018-11-13T03:23:42.371Z,2.82
2018-11-13T03:26:12.102Z,2.79
2018-11-13T03:28:41.794Z,2.84
2018-11-13T03:31:11.679Z,2.79
2018-11-13T03:33:41.348Z,2.73
2018-11-13T03:36:11.380Z,2.72
2018-11-13T03:38:40.915Z,2.45
2018-11-13T03:41:10.443Z,2.75
2018-11-13T03:43:39.946Z,2.78
2018-11-13T03:46:09.418Z,2.84
2018-11-13T03:48:39.105Z,2.84
2018-11-13T03:51:08.750Z,2.61
2018-11-13T03:53:38.422Z,2.49
2018-11-13T03:56:08.111Z,2.50
2018-11-13T03:58:37.574Z,2.51
2018-11-13T04:01:07.589Z,2.52
2018-11-13T04:03:37.162Z,2.64
2018-11-13T04:06:06.970Z,2.62
2018-11-13T04:08:36.745Z,2.48
2018-11-13T04:11:06.474Z,2.44
2018-11-13T04:13:36.110Z,2.41
2018-11-13T04:16:05.761Z,2.40
2018-11-13T04:18:35.823Z,2.37
2018-11-13T04:21:05.653Z,2.42
2018-11-13T04:23:35.402Z,2.37
2018-11-13T04:26:05.243Z,2.34
2018-11-13T04:28:34.948Z,2.37
2018-11-13T04:31:05.170Z,2.41
2018-11-13T04:33:34.878Z,2.32
2018-11-13T04:36:05.583Z,2.28
2018-11-13T04:38:35.507Z,2.15
2018-11-13T04:41:05.653Z,2.20
2018-11-13T04:43:35.167Z,2.20
2018-11-13T04:46:04.861Z,2.28
2018-11-13T04:48:34.782Z,2.47
2018-11-13T04:51:04.430Z,2.24
2018-11-13T04:53:34.303Z,2.13
2018-11-13T04:56:03.996Z,2.11
2018-11-13T04:58:33.721Z,2.10
2018-11-13T05:01:03.329Z,2.15
2018-11-13T05:03:33.039Z,2.10
2018-11-13T05:06:02.942Z,2.09
2018-11-13T05:08:32.667Z,2.04
2018-11-13T05:11:02.190Z,2.08
2018-11-13T05:13:31.732Z,2.06
2018-11-13T05:16:01.756Z,2.08
2018-11-13T05:18:31.703Z,2.18
2018-11-13T05:21:01.426Z,2.10
2018-11-13T05:23:31.236Z,2.11
2018-11-13T05:26:00.908Z,2.19
2018-11-13T05:28:30.450Z,2.14
2018-11-13T05:31:00.000Z,2.13
2018-11-13T05:33:29.572Z,2.09
2018-11-13T05:35:59.297Z,2.23
2018-11-13T05:38:28.910Z,2.33
2018-11-13T05:40:58.678Z,2.22
2018-11-13T05:43:28.615Z,2.18
2018-11-13T05:45:58.240Z,2.16
2018-11-13T05:48:27.617Z,2.16
2018-11-13T05:50:57.314Z,2.25
2018-11-13T05:53:27.265Z,2.32
2018-11-13T05:55:56.769Z,2.46
2018-11-13T05:58:26.469Z,2.52
2018-11-13T06:00:56.074Z,2.60
2018-11-13T06:03:25.681Z,2.70
2018-11-13T06:05:55.342Z,2.78
2018-11-13T06:08:24.923Z,2.77
2018-11-13T06:10:54.402Z,2.81
2018-11-13T06:13:24.109Z,2.89
2018-11-13T06:15:53.571Z,2.98
2018-11-13T06:18:23.621Z,2.92
2018-11-13T06:20:53.255Z,2.78
2018-11-13T06:23:23.057Z,2.79
2018-11-13T06:25:52.957Z,2.84
2018-11-13T06:28:22.612Z,3.00
2018-11-13T06:30:52.565Z,3.05
2018-11-13T06:33:22.503Z,3.11
2018-11-13T06:35:51.958Z,3.21
2018-11-13T06:38:21.422Z,3.27
2018-11-13T06:40:51.493Z,3.39
2018-11-13T06:43:20.992Z,3.44
2018-11-13T06:45:50.533Z,3.38
2018-11-13T06:48:20.203Z,3.45
2018-11-13T06:50:49.595Z,3.51
2018-11-13T06:53:19.254Z,3.61
2018-11-13T06:55:55.032Z,3.72
2018-11-13T06:58:24.582Z,3.76
2018-11-13T07:00:54.593Z,3.84
2018-11-13T07:03:24.365Z,3.99
2018-11-13T07:05:54.286Z,4.17
2018-11-13T07:08:23.986Z,4.29
2018-11-13T07:10:53.847Z,4.39
2018-11-13T07:13:23.562Z,4.61
2018-11-13T07:15:52.919Z,4.74
2018-11-13T07:18:22.491Z,4.82
2018-11-13T07:20:51.902Z,5.02
2018-11-13T07:23:21.592Z,5.08
2018-11-13T07:25:51.252Z,5.23
2018-11-13T07:28:20.797Z,5.41
2018-11-13T07:30:50.247Z,5.51
2018-11-13T07:33:19.763Z,5.72
2018-11-13T07:35:49.699Z,5.62
2018-11-13T07:38:19.193Z,5.86
2018-11-13T07:40:49.115Z,6.01
2018-11-13T07:43:18.788Z,6.16
2018-11-13T07:45:48.429Z,6.00
2018-11-13T07:48:18.246Z,6.28
2018-11-13T07:50:48.026Z,6.52
2018-11-13T07:53:17.552Z,6.51
2018-11-13T07:55:47.447Z,6.58
2018-11-13T07:58:18.410Z,6.61
2018-11-13T08:00:48.217Z,6.80
2018-11-13T08:03:39.870Z,6.91
2018-11-13T08:06:09.523Z,7.13
2018-11-13T08:08:38.993Z,7.37
2018-11-13T08:11:08.593Z,7.56
2018-11-13T08:13:38.350Z,7.64
2018-11-13T08:16:07.929Z,7.66
2018-11-13T08:18:37.329Z,7.56
2018-11-13T08:21:07.454Z,7.56
2018-11-13T08:23:37.150Z,7.70
2018-11-13T08:26:06.969Z,7.51
2018-11-13T08:28:36.546Z,7.62
2018-11-13T08:31:06.586Z,7.64
2018-11-13T08:33:36.471Z,7.77
2018-11-13T08:36:06.261Z,7.79
2018-11-13T08:38:36.892Z,7.77
2018-11-13T08:41:06.976Z,7.78
2018-11-13T08:43:36.910Z,7.68
2018-11-13T08:46:06.571Z,7.70
2018-11-13T08:48:36.537Z,7.86
2018-11-13T08:51:06.436Z,7.87
2018-11-13T08:53:35.782Z,7.91
2018-11-13T08:56:05.814Z,8.00
2018-11-13T08:58:35.570Z,8.11
2018-11-13T09:01:05.241Z,8.37
2018-11-13T09:03:34.625Z,8.94
2018-11-13T09:06:04.216Z,9.57
2018-11-13T09:08:33.733Z,9.98
2018-11-13T09:11:03.543Z,10.41
2018-11-13T09:13:33.375Z,10.34
2018-11-13T09:16:03.305Z,10.72
2018-11-13T09:18:33.095Z,11.08
2018-11-13T09:21:03.030Z,11.22
2018-11-13T09:23:32.929Z,11.38
2018-11-13T09:26:02.645Z,11.59
2018-11-13T09:28:33.079Z,11.75
2018-11-13T09:31:03.155Z,11.78
2018-11-13T09:33:32.659Z,11.81
2018-11-13T09:36:02.204Z,12.14
2018-11-13T09:38:32.020Z,12.20
2018-11-13T09:41:01.823Z,12.40
2018-11-13T09:43:31.619Z,12.47
2018-11-13T09:46:01.650Z,12.69
2018-11-13T09:48:31.166Z,13.08
2018-11-13T09:51:00.676Z,12.74
2018-11-13T09:53:30.486Z,13.01
2018-11-13T09:55:59.989Z,12.41
2018-11-13T09:58:30.137Z,12.57
2018-11-13T10:00:59.759Z,12.89
2018-11-13T10:03:30.035Z,12.93
2018-11-13T10:05:59.068Z,12.79
2018-11-13T10:08:28.953Z,12.78
2018-11-13T10:10:58.877Z,13.05
2018-11-13T10:13:28.576Z,13.31
2018-11-13T10:15:58.287Z,13.27
2018-11-13T10:18:28.051Z,12.97
2018-11-13T10:20:57.821Z,13.12
2018-11-13T10:23:27.771Z,12.89
2018-11-13T10:25:57.435Z,12.90
2018-11-13T10:28:27.254Z,13.15
2018-11-13T10:30:56.758Z,13.45
2018-11-13T10:33:26.400Z,13.58
2018-11-13T10:35:55.766Z,13.67
2018-11-13T10:38:25.486Z,13.43
2018-11-13T10:40:55.436Z,13.60
2018-11-13T10:43:25.192Z,13.71
2018-11-13T10:45:55.031Z,13.76
2018-11-13T10:48:24.732Z,13.68
2018-11-13T10:50:54.239Z,13.92
2018-11-13T10:53:24.081Z,14.02
2018-11-13T10:55:53.600Z,14.18
2018-11-13T10:58:23.162Z,14.18
2018-11-13T11:00:53.980Z,14.19
2018-11-13T11:03:29.073Z,14.51
2018-11-13T11:05:59.029Z,14.10
2018-11-13T11:08:28.765Z,14.72
2018-11-13T11:10:58.605Z,14.46
2018-11-13T11:13:28.447Z,14.45
2018-11-13T11:15:58.282Z,14.74
2018-11-13T11:18:28.021Z,15.06
2018-11-13T11:20:57.817Z,15.33
2018-11-13T11:23:28.112Z,15.59
2018-11-13T11:25:57.801Z,15.77
2018-11-13T11:28:27.583Z,16.17
2018-11-13T11:30:57.245Z,16.52
2018-11-13T11:33:26.781Z,17.04
2018-11-13T11:35:56.929Z,17.53
2018-11-13T11:38:26.686Z,17.75
2018-11-13T11:40:56.244Z,18.29
2018-11-13T11:43:25.881Z,18.81
2018-11-13T11:45:55.422Z,19.54
2018-11-13T11:48:25.220Z,19.82
2018-11-13T11:50:54.981Z,20.44
2018-11-13T11:53:24.687Z,19.50
2018-11-13T11:55:54.090Z,19.90
2018-11-13T11:58:23.590Z,20.53
2018-11-13T12:00:53.323Z,20.89
2018-11-13T12:03:22.909Z,21.13
2018-11-13T12:05:53.091Z,21.62
2018-11-13T12:08:22.733Z,22.31
2018-11-13T12:10:52.370Z,22.76
2018-11-13T12:13:21.951Z,22.60
2018-11-13T12:15:51.854Z,22.67
2018-11-13T12:18:21.421Z,23.32
2018-11-13T12:20:51.281Z,23.40
2018-11-13T12:23:21.006Z,22.84
2018-11-13T12:25:50.515Z,21.99
2018-11-13T12:28:20.672Z,22.45
2018-11-13T12:30:50.522Z,22.76
2018-11-13T12:33:20.093Z,22.24
2018-11-13T12:35:49.693Z,23.42
2018-11-13T12:38:19.448Z,23.37
2018-11-13T12:40:49.321Z,24.16
2018-11-13T12:43:19.098Z,24.20
2018-11-13T12:45:48.805Z,24.26
2018-11-13T12:48:18.629Z,24.35
2018-11-13T12:50:53.141Z,25.12
2018-11-13T12:53:22.571Z,23.74
2018-11-13T12:55:52.567Z,24.78
2018-11-13T12:58:22.019Z,24.36
2018-11-13T13:00:51.722Z,24.43
2018-11-13T13:03:21.595Z,24.67
2018-11-13T13:05:51.758Z,24.28
2018-11-13T13:08:21.616Z,24.14
2018-11-13T13:10:51.171Z,23.98
2018-11-13T13:13:20.830Z,23.77
2018-11-13T13:15:50.535Z,23.69
2018-11-13T13:18:20.490Z,23.85
2018-11-13T13:20:49.969Z,23.72
2018-11-13T13:23:19.511Z,23.57
2018-11-13T13:25:49.099Z,23.21
2018-11-13T13:28:18.455Z,22.95
2018-11-13T13:30:48.440Z,22.66
2018-11-13T13:33:18.069Z,22.25
2018-11-13T13:36:04.685Z,21.94
2018-11-13T13:38:35.785Z,21.28
2018-11-13T13:41:05.876Z,20.78
2018-11-13T13:43:35.917Z,19.64
2018-11-13T13:46:05.700Z,20.53
2018-11-13T13:48:35.483Z,20.67
2018-11-13T13:51:05.420Z,20.39
2018-11-13T13:53:34.996Z,20.36
2018-11-13T13:56:04.853Z,20.38
2018-11-13T13:58:34.479Z,20.17
2018-11-13T14:01:04.642Z,20.01
2018-11-13T14:03:34.860Z,19.42
2018-11-13T14:06:04.672Z,19.70
2018-11-13T14:08:34.374Z,18.77
2018-11-13T14:11:04.201Z,18.06
2018-11-13T14:13:34.368Z,17.35
2018-11-13T14:16:04.275Z,16.66
2018-11-13T14:18:34.209Z,16.06
2018-11-13T14:21:03.897Z,15.77
2018-11-13T14:23:33.840Z,15.48
2018-11-13T14:26:03.751Z,15.25
2018-11-13T14:28:33.447Z,15.09
2018-11-13T14:31:03.081Z,15.08
2018-11-13T14:33:32.779Z,14.86
2018-11-13T14:36:02.417Z,14.60
2018-11-13T14:38:32.591Z,14.55
2018-11-13T14:41:02.225Z,14.35
2018-11-13T14:43:31.977Z,14.11
2018-11-13T14:46:01.760Z,13.85
2018-11-13T14:48:31.350Z,13.81
2018-11-13T14:51:01.109Z,13.68
2018-11-13T14:53:30.684Z,13.71
2018-11-13T14:56:00.273Z,13.40
2018-11-13T14:58:30.585Z,13.33
2018-11-13T15:01:00.230Z,13.22
2018-11-13T15:03:30.243Z,13.16
2018-11-13T15:06:00.060Z,12.96
2018-11-13T15:08:29.562Z,12.79
2018-11-13T15:10:59.354Z,12.59
2018-11-13T15:13:28.973Z,12.52
2018-11-13T15:15:59.113Z,12.55
2018-11-13T15:18:28.883Z,12.39
2018-11-13T15:20:58.617Z,12.21
2018-11-13T15:23:28.613Z,12.14
2018-11-13T15:25:58.361Z,12.06
2018-11-13T15:28:28.666Z,11.86
2018-11-13T15:30:58.243Z,11.74
2018-11-13T15:33:27.885Z,11.73
2018-11-13T15:35:57.247Z,11.67
2018-11-13T15:38:26.833Z,11.77
2018-11-13T15:40:56.736Z,11.67
2018-11-13T15:43:26.354Z,11.67
2018-11-13T15:45:57.061Z,11.54
2018-11-13T15:48:26.466Z,11.41
2018-11-13T15:50:56.265Z,11.34
2018-11-13T15:53:26.183Z,11.27
2018-11-13T15:55:55.997Z,11.23
2018-11-13T15:58:25.853Z,11.20
2018-11-13T16:00:55.695Z,11.18
2018-11-13T16:03:27.471Z,11.08
2018-11-13T16:05:57.233Z,11.02
2018-11-13T16:08:27.001Z,11.12
2018-11-13T16:28:19.460Z,10.36
2018-11-13T16:30:49.392Z,10.37
2018-11-13T16:33:19.216Z,10.25
2018-11-13T16:35:49.046Z,10.14
2018-11-13T16:55:45.676Z,9.65
2018-11-13T16:58:16.029Z,9.59
2018-11-13T17:00:45.800Z,9.48
2018-11-13T17:03:15.121Z,9.53
2018-11-13T17:05:44.775Z,9.45
2018-11-13T17:08:14.401Z,9.50
2018-11-13T17:10:44.857Z,9.58
2018-11-13T17:30:37.774Z,9.00
2018-11-13T17:33:08.763Z,8.97
2018-11-13T17:35:38.771Z,9.04
2018-11-13T17:38:08.776Z,8.82
2018-11-13T17:40:39.094Z,8.85
2018-11-13T17:43:09.077Z,8.88
2018-11-13T17:45:39.641Z,8.96
2018-11-13T17:48:10.473Z,8.92
2018-11-13T18:08:02.469Z,8.40
2018-11-13T18:10:33.318Z,8.32
2018-11-13T18:13:03.250Z,8.23
2018-11-13T18:15:32.743Z,8.33
2018-11-13T18:18:02.682Z,8.33
2018-11-13T18:20:33.482Z,8.26
2018-11-13T18:23:03.477Z,8.21
2018-11-13T18:25:33.016Z,8.19
2018-11-13T18:28:03.151Z,8.18
2018-11-13T18:30:34.401Z,8.13
2018-11-13T18:50:28.740Z,7.79
2018-11-13T18:52:58.386Z,7.74
2018-11-13T18:55:28.180Z,7.69
2018-11-13T18:57:58.211Z,7.66
2018-11-13T19:00:31.028Z,7.77
2018-11-13T19:03:01.797Z,7.74
2018-11-13T19:05:31.485Z,7.70
2018-11-13T19:08:01.172Z,7.61
2018-11-13T19:27:53.410Z,7.53
2018-11-13T19:30:23.442Z,7.37
2018-11-13T19:50:16.614Z,7.28
2018-11-13T19:52:46.149Z,7.29
2018-11-13T19:55:16.463Z,7.18
2018-11-13T19:57:46.456Z,7.18
2018-11-13T20:00:20.256Z,7.21
2018-11-13T20:02:50.986Z,7.23
2018-11-13T20:05:20.802Z,7.13
2018-11-13T20:07:51.117Z,7.12
2018-11-13T20:10:22.730Z,7.04
2018-11-13T20:12:53.417Z,7.14
2018-11-13T20:15:24.194Z,7.07
2018-11-13T20:17:53.942Z,7.10
2018-11-13T20:20:25.211Z,7.08
2018-11-13T20:22:55.378Z,7.12
2018-11-13T20:25:27.278Z,7.11
2018-11-13T20:27:57.021Z,7.01
2018-11-13T20:30:31.168Z,7.12
2018-11-13T20:50:24.114Z,6.58
2018-11-13T20:52:54.074Z,6.45
2018-11-13T20:55:23.901Z,6.43
2018-11-13T20:57:53.830Z,6.41
2018-11-13T21:00:28.605Z,6.41
2018-11-13T21:02:58.835Z,6.37
2018-11-13T21:05:28.494Z,6.29
2018-11-13T21:07:58.223Z,6.38
2018-11-13T21:10:36.661Z,6.36
2018-11-13T21:13:06.745Z,6.44
2018-11-13T21:15:36.563Z,6.38
2018-11-13T21:18:06.417Z,6.36
2018-11-13T21:20:35.981Z,6.41
2018-11-13T21:23:06.198Z,6.46
2018-11-13T21:25:35.898Z,6.51
2018-11-13T21:28:05.590Z,6.39
2018-11-13T21:47:57.186Z,6.29
2018-11-13T21:50:27.904Z,6.14
2018-11-13T21:52:57.410Z,6.17
2018-11-13T22:12:48.714Z,6.29
2018-11-13T22:15:20.139Z,6.34
2018-11-13T22:17:50.002Z,6.31
2018-11-13T22:20:20.226Z,6.24
2018-11-13T22:22:50.930Z,6.27
2018-11-13T22:25:22.427Z,6.21
2018-11-13T22:27:53.634Z,6.14
2018-11-13T22:30:25.465Z,6.01
2018-11-13T22:32:55.153Z,6.05
2018-11-13T22:52:46.057Z,5.76
2018-11-13T22:55:16.057Z,5.81
2018-11-13T22:57:46.609Z,5.86
2018-11-13T23:00:40.114Z,5.84
2018-11-13T23:03:11.314Z,5.70
2018-11-13T23:05:41.479Z,5.50
2018-11-13T23:08:12.014Z,5.42
2018-11-13T23:28:03.751Z,5.16
2018-11-13T23:30:33.378Z,5.10
2018-11-13T23:33:03.026Z,5.08
2018-11-13T23:35:32.535Z,5.10
2018-11-13T23:55:24.542Z,4.87
2018-11-13T23:57:54.083Z,4.90
